createdAt,value
2019-02-25T00:02:31.753Z,103996.65
2019-02-25T00:05:02.103Z,103993.16
2019-02-25T00:07:32.519Z,103987.84
2019-02-25T00:10:02.942Z,103969.44
2019-02-25T00:12:33.489Z,103975.26
2019-02-25T00:15:04.068Z,103970.98
2019-02-25T00:17:34.845Z,103978.23
2019-02-25T00:20:05.549Z,103983.37
2019-02-25T00:22:35.724Z,103978.44
2019-02-25T00:25:07.615Z,103968.34
2019-02-25T00:27:37.932Z,103963.97
2019-02-25T00:30:08.534Z,103967.59
2019-02-25T00:32:38.818Z,103967.59
2019-02-25T00:35:09.334Z,103958.00
2019-02-25T00:37:39.707Z,103959.29
2019-02-25T00:40:10.366Z,103956.20
2019-02-25T00:42:40.789Z,103953.72
2019-02-25T00:45:11.349Z,103958.14
2019-02-25T00:47:41.764Z,103951.78
2019-02-25T00:50:13.587Z,103953.86
2019-02-25T00:52:44.110Z,103953.72
2019-02-25T00:55:14.845Z,103955.66
2019-02-25T00:57:45.282Z,103956.15
2019-02-25T01:00:16.480Z,103961.45
2019-02-25T01:02:46.955Z,103967.23
2019-02-25T01:05:18.186Z,103960.52
2019-02-25T01:07:48.653Z,103965.03
2019-02-25T01:10:26.569Z,103965.67
2019-02-25T01:13:03.317Z,103960.75
2019-02-25T01:15:33.672Z,103959.20
2019-02-25T01:18:03.940Z,103959.94
2019-02-25T01:20:34.269Z,103960.43
2019-02-25T01:23:04.858Z,103958.63
2019-02-25T01:25:35.344Z,103954.34
2019-02-25T01:28:05.954Z,103958.08
2019-02-25T01:30:36.346Z,103955.64
2019-02-25T01:33:06.828Z,103953.17
2019-02-25T01:35:37.125Z,103957.83
2019-02-25T01:38:07.751Z,103963.75
2019-02-25T01:40:38.020Z,103964.00
2019-02-25T01:43:08.387Z,103962.84
2019-02-25T01:45:38.706Z,103969.94
2019-02-25T01:48:09.164Z,103962.69
2019-02-25T01:50:39.470Z,103967.86
2019-02-25T01:53:09.855Z,103972.52
2019-02-25T01:55:40.167Z,103977.03
2019-02-25T01:58:10.468Z,103968.72
2019-02-25T02:00:40.838Z,103966.77
2019-02-25T02:03:11.234Z,103964.82
2019-02-25T02:05:41.513Z,103957.41
2019-02-25T02:08:11.617Z,103952.39
2019-02-25T02:10:41.960Z,103950.95
2019-02-25T02:13:14.381Z,103949.92
2019-02-25T02:15:44.370Z,103952.66
2019-02-25T02:18:14.801Z,103950.61
2019-02-25T02:20:45.355Z,103933.67
2019-02-25T02:23:15.914Z,103935.62
2019-02-25T02:25:46.289Z,103935.62
2019-02-25T02:28:16.638Z,103937.80
2019-02-25T02:30:47.269Z,103934.72
2019-02-25T02:33:17.694Z,103935.20
2019-02-25T02:35:48.045Z,103940.34
2019-02-25T02:38:18.324Z,103937.71
2019-02-25T02:40:48.822Z,103932.83
2019-02-25T02:43:19.227Z,103929.31
2019-02-25T02:46:36.599Z,103929.70
2019-02-25T02:49:06.990Z,103923.00
2019-02-25T02:51:37.202Z,103925.34
2019-02-25T02:54:07.495Z,103924.14
2019-02-25T02:56:37.721Z,103920.39
2019-02-25T02:59:07.968Z,103920.52
2019-02-25T03:01:38.128Z,103919.86
2019-02-25T03:04:08.281Z,103923.22
2019-02-25T03:06:38.358Z,103920.38
2019-02-25T03:09:11.641Z,103922.95
2019-02-25T03:11:41.822Z,103925.39
2019-02-25T03:14:12.063Z,103919.83
2019-02-25T03:16:42.111Z,103911.82
2019-02-25T03:19:12.266Z,103912.33
2019-02-25T03:21:42.519Z,103910.95
2019-02-25T03:24:12.763Z,103909.52
2019-02-25T03:26:42.912Z,103900.78
2019-02-25T03:29:13.054Z,103901.84
2019-02-25T03:31:43.175Z,103902.11
2019-02-25T03:34:13.284Z,103908.33
2019-02-25T03:36:43.481Z,103911.70
2019-02-25T03:39:13.704Z,103910.34
2019-02-25T03:41:43.955Z,103902.34
2019-02-25T03:44:14.083Z,103906.45
2019-02-25T03:46:44.225Z,103902.58
2019-02-25T03:49:14.375Z,103911.86
2019-02-25T03:51:44.556Z,103918.95
2019-02-25T03:54:14.730Z,103921.39
2019-02-25T03:56:44.952Z,103929.02
2019-02-25T03:59:15.177Z,103928.36
2019-02-25T04:01:50.347Z,103929.11
2019-02-25T04:04:26.954Z,103935.96
2019-02-25T04:06:57.954Z,103938.88
2019-02-25T04:09:32.339Z,103948.42
2019-02-25T04:12:02.504Z,103951.36
2019-02-25T04:14:32.699Z,103955.13
2019-02-25T04:17:02.793Z,103956.26
2019-02-25T04:19:32.967Z,103960.38
2019-02-25T04:22:03.174Z,103954.63
2019-02-25T04:24:33.261Z,103952.17
2019-02-25T04:27:03.337Z,103954.75
2019-02-25T04:29:33.423Z,103956.55
2019-02-25T04:32:03.590Z,103964.03
2019-02-25T04:34:33.826Z,103966.34
2019-02-25T04:37:03.867Z,103963.33
2019-02-25T04:39:34.056Z,103961.89
2019-02-25T04:42:04.321Z,103955.67
2019-02-25T04:44:34.491Z,103959.78
2019-02-25T04:47:04.692Z,103957.28
2019-02-25T04:49:34.812Z,103954.04
2019-02-25T04:52:05.031Z,103949.90
2019-02-25T04:54:35.076Z,103947.55
2019-02-25T04:57:05.317Z,103938.02
2019-02-25T04:59:35.490Z,103939.34
2019-02-25T05:02:06.666Z,103937.58
2019-02-25T05:04:36.732Z,103940.42
2019-02-25T05:07:06.870Z,103944.30
2019-02-25T05:09:37.003Z,103945.01
2019-02-25T05:12:07.219Z,103937.74
2019-02-25T05:14:37.363Z,103933.36
2019-02-25T05:17:07.494Z,103924.84
2019-02-25T05:19:37.566Z,103917.64
2019-02-25T05:22:07.714Z,103917.02
2019-02-25T05:24:37.819Z,103924.37
2019-02-25T05:27:07.891Z,103916.12
2019-02-25T05:29:38.199Z,103921.67
2019-02-25T05:32:08.326Z,103917.10
2019-02-25T05:34:38.431Z,103924.57
2019-02-25T05:37:08.518Z,103926.88
2019-02-25T05:39:38.671Z,103933.33
2019-02-25T05:42:08.871Z,103930.20
2019-02-25T05:44:39.073Z,103937.94
2019-02-25T05:47:09.217Z,103939.62
2019-02-25T05:49:39.398Z,103945.69
2019-02-25T05:52:09.620Z,103945.92
2019-02-25T05:54:39.695Z,103941.03
2019-02-25T05:57:12.061Z,103940.25
2019-02-25T05:59:42.204Z,103946.70
2019-02-25T06:02:12.499Z,103943.65
2019-02-25T06:04:42.568Z,103942.86
2019-02-25T06:07:12.748Z,103937.08
2019-02-25T06:09:43.008Z,103947.55
2019-02-25T06:12:13.269Z,103945.75
2019-02-25T06:14:43.514Z,103946.66
2019-02-25T06:17:13.755Z,103945.98
2019-02-25T06:19:43.995Z,103952.95
2019-02-25T06:22:14.152Z,103959.95
2019-02-25T06:24:44.257Z,103968.20
2019-02-25T06:27:14.638Z,103963.94
2019-02-25T06:29:44.827Z,103972.06
2019-02-25T06:32:15.005Z,103978.01
2019-02-25T06:34:45.292Z,103983.91
2019-02-25T06:37:17.100Z,103982.23
2019-02-25T06:39:47.406Z,103989.07
2019-02-25T06:42:17.610Z,103986.73
2019-02-25T06:44:47.846Z,103989.70
2019-02-25T06:47:18.105Z,103989.54
2019-02-25T06:49:48.291Z,103994.58
2019-02-25T06:52:20.011Z,103999.86
2019-02-25T06:54:50.433Z,103998.57
2019-02-25T06:57:22.284Z,103994.19
2019-02-25T06:59:52.501Z,103992.43
2019-02-25T07:02:22.687Z,103998.26
2019-02-25T07:04:58.396Z,104006.66
2019-02-25T07:07:46.480Z,104011.20
2019-02-25T07:10:32.186Z,104024.53
2019-02-25T07:13:16.076Z,104021.56
2019-02-25T07:16:08.080Z,104015.03
2019-02-25T07:21:19.465Z,104008.13
2019-02-25T07:24:11.608Z,104017.56
2019-02-25T07:26:59.450Z,104027.17
2019-02-25T07:29:42.833Z,104025.13
2019-02-25T07:32:30.505Z,104026.77
2019-02-25T07:35:18.360Z,104030.97
2019-02-25T07:38:20.120Z,104029.16
2019-02-25T07:41:24.557Z,104040.88
2019-02-25T07:44:29.107Z,104039.14
2019-02-25T07:47:16.701Z,104037.14
2019-02-25T07:50:03.819Z,104035.00
2019-02-25T07:52:55.764Z,104039.36
2019-02-25T07:55:32.279Z,104048.61
2019-02-25T07:58:33.268Z,104045.20
2019-02-25T08:01:16.502Z,104053.92
2019-02-25T08:04:04.048Z,104059.91
2019-02-25T08:06:59.008Z,104058.16
2019-02-25T08:09:53.744Z,104066.22
2019-02-25T08:12:42.760Z,104063.77
2019-02-25T08:15:37.933Z,104071.56
2019-02-25T08:18:22.359Z,104074.29
2019-02-25T08:21:17.853Z,104074.92
2019-02-25T08:24:09.441Z,104076.48
2019-02-25T08:27:04.258Z,104076.75
2019-02-25T08:29:43.461Z,104081.41
2019-02-25T08:32:37.947Z,104085.41
2019-02-25T08:35:25.146Z,104097.44
2019-02-25T08:38:16.277Z,104096.91
2019-02-25T08:41:01.113Z,104093.41
2019-02-25T08:44:07.763Z,104093.49
2019-02-25T08:46:54.628Z,104081.50
2019-02-25T08:49:37.070Z,104084.31
2019-02-25T08:52:07.375Z,104076.32
2019-02-25T08:54:37.680Z,104075.85
2019-02-25T08:57:07.947Z,104075.00
2019-02-25T08:59:38.283Z,104070.20
2019-02-25T09:02:08.582Z,104064.63
2019-02-25T09:04:38.651Z,104064.38
2019-02-25T09:07:08.843Z,104066.33
2019-02-25T09:09:39.058Z,104070.77
2019-02-25T09:12:09.280Z,104082.48
2019-02-25T09:14:39.344Z,104078.86
2019-02-25T09:17:09.716Z,104075.80
2019-02-25T09:19:39.938Z,104065.91
2019-02-25T09:22:10.177Z,104061.19
2019-02-25T09:24:40.932Z,104061.69
2019-02-25T09:27:11.201Z,104058.65
2019-02-25T09:29:44.994Z,104054.05
2019-02-25T09:32:15.397Z,104051.40
2019-02-25T09:34:47.139Z,104046.43
2019-02-25T09:37:17.416Z,104036.36
2019-02-25T09:39:47.580Z,104032.78
2019-02-25T09:42:17.805Z,104036.75
2019-02-25T09:44:47.992Z,104040.70
2019-02-25T09:47:18.130Z,104042.03
2019-02-25T09:49:48.297Z,104034.53
2019-02-25T09:52:18.454Z,104028.62
2019-02-25T09:54:48.695Z,104019.09
2019-02-25T09:57:18.890Z,104014.65
2019-02-25T09:59:49.142Z,104010.95
2019-02-25T10:02:24.682Z,104003.48
2019-02-25T10:04:54.485Z,104000.84
2019-02-25T10:07:24.711Z,103994.31
2019-02-25T10:09:54.868Z,103987.84
2019-02-25T10:12:25.097Z,103988.17
2019-02-25T10:14:55.287Z,103981.98
2019-02-25T10:17:25.699Z,103982.02
2019-02-25T10:19:55.931Z,103969.35
2019-02-25T10:22:26.173Z,103967.81
2019-02-25T10:24:56.467Z,103966.50
2019-02-25T10:27:26.681Z,103977.19
2019-02-25T10:29:56.871Z,103972.79
2019-02-25T10:32:28.056Z,103968.81
2019-02-25T10:34:58.933Z,103969.55
2019-02-25T10:37:29.119Z,103951.47
2019-02-25T10:39:59.412Z,103947.99
2019-02-25T10:42:31.425Z,103948.41
2019-02-25T10:45:02.700Z,103945.30
2019-02-25T10:47:33.460Z,103943.51
2019-02-25T10:50:05.421Z,103945.83
2019-02-25T10:52:35.869Z,103955.68
2019-02-25T10:55:09.328Z,103953.73
2019-02-25T10:57:39.572Z,103954.55
2019-02-25T11:00:15.454Z,103952.41
2019-02-25T11:02:46.887Z,103952.33
2019-02-25T11:05:19.009Z,103942.22
2019-02-25T11:07:49.683Z,103947.98
2019-02-25T11:10:37.350Z,103949.25
2019-02-25T11:13:07.753Z,103953.33
2019-02-25T11:15:42.383Z,103954.86
2019-02-25T11:18:13.044Z,103967.22
2019-02-25T11:20:43.308Z,103972.75
2019-02-25T11:23:15.380Z,103964.72
2019-02-25T11:25:45.615Z,103962.79
2019-02-25T11:28:25.479Z,103954.33
2019-02-25T11:30:49.793Z,103949.02
2019-02-25T11:33:22.478Z,103943.88
2019-02-25T11:35:52.142Z,103948.08
2019-02-25T11:38:23.822Z,103953.73
2019-02-25T11:40:54.646Z,103951.70
2019-02-25T11:43:25.104Z,103945.55
2019-02-25T11:45:55.605Z,103942.48
2019-02-25T11:48:25.755Z,103953.92
2019-02-25T11:50:56.096Z,103958.63
2019-02-25T11:53:26.348Z,103951.78
2019-02-25T11:55:56.532Z,103953.30
2019-02-25T11:58:26.850Z,103950.45
2019-02-25T12:00:57.107Z,103950.34
2019-02-25T12:03:33.017Z,103955.20
2019-02-25T12:06:03.339Z,103951.18
2019-02-25T12:08:33.576Z,103938.80
2019-02-25T12:11:03.665Z,103944.72
2019-02-25T12:13:33.874Z,103939.59
2019-02-25T12:16:04.107Z,103946.67
2019-02-25T12:18:34.396Z,103948.93
2019-02-25T12:21:04.587Z,103937.38
2019-02-25T12:23:34.828Z,103936.53
2019-02-25T12:26:05.108Z,103930.30
2019-02-25T12:28:35.254Z,103919.75
2019-02-25T12:31:06.743Z,103923.94
2019-02-25T12:33:36.896Z,103929.33
2019-02-25T12:36:07.121Z,103930.23
2019-02-25T12:38:38.416Z,103939.11
2019-02-25T12:41:08.622Z,103929.01
2019-02-25T12:43:38.807Z,103927.28
2019-02-25T12:46:08.905Z,103930.34
2019-02-25T12:48:39.097Z,103918.89
2019-02-25T12:51:13.193Z,103915.78
2019-02-25T12:53:43.480Z,103914.45
2019-02-25T12:56:13.666Z,103908.72
2019-02-25T12:58:43.893Z,103908.70
2019-02-25T13:01:14.164Z,103905.57
2019-02-25T13:03:44.339Z,103908.63
2019-02-25T13:06:14.481Z,103911.17
2019-02-25T13:08:44.626Z,103907.37
2019-02-25T13:11:16.427Z,103906.08
2019-02-25T13:13:46.618Z,103905.87
2019-02-25T13:16:19.921Z,103906.28
2019-02-25T13:18:50.460Z,103904.03
2019-02-25T13:21:20.681Z,103902.05
2019-02-25T13:23:50.767Z,103900.80
2019-02-25T13:26:22.656Z,103888.56
2019-02-25T13:28:52.857Z,103883.61
2019-02-25T13:31:23.308Z,103886.17
2019-02-25T13:33:57.068Z,103890.97
2019-02-25T13:36:27.256Z,103886.71
2019-02-25T13:38:57.385Z,103877.73
2019-02-25T13:41:28.366Z,103873.06
2019-02-25T13:43:59.008Z,103875.72
2019-02-25T13:46:29.083Z,103872.62
2019-02-25T13:48:59.159Z,103867.18
2019-02-25T13:51:29.456Z,103867.84
2019-02-25T13:53:59.741Z,103866.39
2019-02-25T13:56:30.025Z,103867.07
2019-02-25T13:59:01.371Z,103867.57
2019-02-25T14:01:31.954Z,103861.77
2019-02-25T14:04:02.297Z,103857.16
2019-02-25T14:06:32.568Z,103858.09
2019-02-25T14:09:11.117Z,103845.35
2019-02-25T14:11:41.601Z,103846.09
2019-02-25T14:14:12.174Z,103842.59
2019-02-25T14:16:42.501Z,103835.98
2019-02-25T14:19:13.161Z,103839.95
2019-02-25T14:21:46.713Z,103847.47
2019-02-25T14:24:22.770Z,103843.00
2019-02-25T14:26:54.457Z,103846.64
2019-02-25T14:29:26.457Z,103844.95
2019-02-25T14:31:57.293Z,103844.70
2019-02-25T14:34:29.710Z,103843.00
2019-02-25T14:37:01.952Z,103840.02
2019-02-25T14:39:32.961Z,103838.33
2019-02-25T14:42:04.832Z,103832.35
2019-02-25T14:44:38.103Z,103828.07
2019-02-25T14:47:19.762Z,103834.87
2019-02-25T14:49:42.791Z,103832.30
2019-02-25T14:52:12.270Z,103830.23
2019-02-25T14:54:42.506Z,103827.23
2019-02-25T14:57:12.793Z,103829.09
2019-02-25T14:59:43.025Z,103827.45
2019-02-25T15:02:13.354Z,103825.25
2019-02-25T15:04:43.912Z,103823.09
2019-02-25T15:07:15.258Z,103820.83
2019-02-25T15:09:45.824Z,103810.33
2019-02-25T15:12:16.200Z,103805.97
2019-02-25T15:14:46.409Z,103798.22
2019-02-25T15:17:16.629Z,103794.88
2019-02-25T15:19:46.986Z,103797.65
2019-02-25T15:22:17.998Z,103803.52
2019-02-25T15:24:50.010Z,103802.23
2019-02-25T15:27:20.215Z,103798.30
2019-02-25T15:29:50.461Z,103796.64
2019-02-25T15:32:20.635Z,103794.67
2019-02-25T15:34:52.717Z,103797.13
2019-02-25T15:37:22.854Z,103794.31
2019-02-25T15:39:53.072Z,103784.01
2019-02-25T15:42:24.112Z,103784.80
2019-02-25T15:44:57.583Z,103778.07
2019-02-25T15:47:27.966Z,103778.87
2019-02-25T15:50:01.673Z,103775.20
2019-02-25T15:52:39.523Z,103770.61
2019-02-25T15:55:05.269Z,103770.02
2019-02-25T15:57:37.387Z,103770.98
2019-02-25T16:00:10.619Z,103765.72
2019-02-25T16:02:41.367Z,103768.41
2019-02-25T16:05:12.333Z,103773.74
2019-02-25T16:07:43.165Z,103771.28
2019-02-25T16:10:14.615Z,103770.61
2019-02-25T16:12:46.203Z,103776.19
2019-02-25T16:15:17.469Z,103770.84
2019-02-25T16:17:49.665Z,103768.05
2019-02-25T16:20:57.481Z,103766.75
2019-02-25T16:23:31.831Z,103771.91
2019-02-25T16:26:01.332Z,103780.41
2019-02-25T16:28:33.529Z,103785.16
2019-02-25T16:31:05.713Z,103785.18
2019-02-25T16:33:36.558Z,103783.38
2019-02-25T16:36:09.909Z,103780.64
2019-02-25T16:38:40.220Z,103790.49
2019-02-25T16:41:11.361Z,103793.66
2019-02-25T16:46:14.078Z,103794.80
2019-02-25T16:48:43.439Z,103801.94
2019-02-25T16:51:14.174Z,103803.33
2019-02-25T16:53:45.550Z,103802.05
2019-02-25T16:56:16.859Z,103804.22
2019-02-25T16:58:48.198Z,103805.19
2019-02-25T17:01:20.147Z,103801.23
2019-02-25T17:03:50.720Z,103800.73
2019-02-25T17:06:21.549Z,103807.54
2019-02-25T17:08:53.435Z,103802.36
2019-02-25T17:11:24.608Z,103796.96
2019-02-25T17:13:57.212Z,103795.78
2019-02-25T17:16:27.580Z,103802.09
2019-02-25T17:19:00.923Z,103802.63
2019-02-25T17:21:31.736Z,103799.64
2019-02-25T17:24:03.596Z,103800.67
2019-02-25T17:26:34.209Z,103801.71
2019-02-25T17:29:04.532Z,103804.83
2019-02-25T17:31:36.622Z,103807.56
2019-02-25T17:34:07.332Z,103803.47
2019-02-25T17:36:37.631Z,103809.99
2019-02-25T17:39:17.132Z,103808.92
2019-02-25T17:41:47.931Z,103809.06
2019-02-25T17:44:20.522Z,103819.56
2019-02-25T17:46:50.358Z,103819.78
2019-02-25T17:49:20.564Z,103825.33
2019-02-25T17:51:51.638Z,103825.91
2019-02-25T17:54:24.005Z,103831.03
2019-02-25T17:56:54.586Z,103837.03
2019-02-25T17:59:26.877Z,103841.79
2019-02-25T18:01:57.498Z,103844.06
2019-02-25T18:04:28.727Z,103833.86
2019-02-25T18:07:00.276Z,103831.59
2019-02-25T18:09:31.028Z,103834.48
2019-02-25T18:12:02.178Z,103843.11
2019-02-25T18:14:34.290Z,103843.45
2019-02-25T18:17:05.956Z,103846.61
2019-02-25T18:19:39.203Z,103830.17
2019-02-25T18:22:11.597Z,103828.17
2019-02-25T18:24:43.542Z,103824.48
2019-02-25T18:27:14.913Z,103827.05
2019-02-25T18:29:46.248Z,103825.47
2019-02-25T18:32:17.564Z,103813.53
2019-02-25T18:34:49.581Z,103819.70
2019-02-25T18:37:20.468Z,103824.00
2019-02-25T18:39:52.306Z,103830.16
2019-02-25T18:42:23.067Z,103828.75
2019-02-25T18:44:53.647Z,103828.75
2019-02-25T18:47:25.570Z,103820.94
2019-02-25T18:49:57.133Z,103813.83
2019-02-25T18:52:29.612Z,103812.03
2019-02-25T18:55:02.793Z,103806.90
2019-02-25T18:57:33.208Z,103814.83
2019-02-25T19:00:04.550Z,103816.66
2019-02-25T19:02:37.723Z,103818.03
2019-02-25T19:05:11.991Z,103814.63
2019-02-25T19:07:40.820Z,103818.84
2019-02-25T19:10:12.571Z,103813.92
2019-02-25T19:12:43.878Z,103810.61
2019-02-25T19:15:16.601Z,103815.81
2019-02-25T19:17:48.416Z,103812.48
2019-02-25T19:20:19.333Z,103817.80
2019-02-25T19:22:49.969Z,103808.97
2019-02-25T19:25:22.962Z,103809.26
2019-02-25T19:27:54.344Z,103809.26
2019-02-25T19:30:27.271Z,103812.27
2019-02-25T19:32:57.174Z,103813.78
2019-02-25T19:35:28.702Z,103804.66
2019-02-25T19:38:03.184Z,103810.56
2019-02-25T19:40:32.224Z,103803.10
2019-02-25T19:43:04.227Z,103811.83
2019-02-25T19:45:36.395Z,103810.27
2019-02-25T19:48:07.395Z,103810.67
2019-02-25T19:53:19.471Z,103799.56
2019-02-25T19:55:51.201Z,103805.73
2019-02-25T20:01:05.991Z,103810.13
2019-02-25T20:03:37.589Z,103808.73
2019-02-25T20:06:11.240Z,103813.17
2019-02-25T20:08:40.758Z,103807.81
2019-02-25T20:11:12.450Z,103801.67
2019-02-25T20:13:43.568Z,103799.97
2019-02-25T20:16:18.028Z,103802.24
2019-02-25T20:18:46.391Z,103799.59
2019-02-25T20:21:16.829Z,103791.84
2019-02-25T20:23:48.020Z,103797.23
2019-02-25T20:26:20.049Z,103795.27
2019-02-25T20:28:51.645Z,103796.93
2019-02-25T20:31:22.132Z,103804.48
2019-02-25T20:33:53.086Z,103816.03
2019-02-25T20:36:26.210Z,103818.05
2019-02-25T20:38:56.902Z,103821.33
2019-02-25T20:41:28.839Z,103823.80
2019-02-25T20:44:00.652Z,103818.11
2019-02-25T20:46:32.751Z,103816.69
2019-02-25T20:49:04.066Z,103810.66
2019-02-25T20:51:36.180Z,103818.95
2019-02-25T20:54:09.032Z,103819.16
2019-02-25T20:56:39.647Z,103814.84
2019-02-25T20:59:10.254Z,103812.27
2019-02-25T21:01:44.073Z,103808.37
2019-02-25T21:04:13.583Z,103810.47
2019-02-25T21:06:45.324Z,103806.64
2019-02-25T21:09:15.830Z,103814.70
2019-02-25T21:11:46.455Z,103817.23
2019-02-25T21:14:17.022Z,103821.89
2019-02-25T21:16:47.662Z,103826.59
2019-02-25T21:19:20.021Z,103831.11
2019-02-25T21:21:52.923Z,103830.30
2019-02-25T21:24:22.669Z,103835.49
2019-02-25T21:26:55.236Z,103831.23
2019-02-25T21:29:27.098Z,103829.94
2019-02-25T21:31:58.797Z,103824.61
2019-02-25T21:34:31.198Z,103823.99
2019-02-25T21:37:03.332Z,103807.61
2019-02-25T21:39:34.411Z,103804.86
2019-02-25T21:42:10.683Z,103802.77
2019-02-25T21:44:39.652Z,103802.55
2019-02-25T21:47:10.246Z,103811.69
2019-02-25T21:49:40.883Z,103819.48
2019-02-25T21:52:13.195Z,103821.45
2019-02-25T21:54:44.983Z,103809.79
2019-02-25T21:57:15.657Z,103811.77
2019-02-25T21:59:46.069Z,103814.91
2019-02-25T22:02:16.508Z,103809.91
2019-02-25T22:04:48.109Z,103812.83
2019-02-25T22:07:24.149Z,103810.55
2019-02-25T22:09:51.477Z,103807.48
2019-02-25T22:12:22.116Z,103810.74
2019-02-25T22:14:52.719Z,103803.01
2019-02-25T22:17:24.653Z,103806.67
2019-02-25T22:19:55.238Z,103812.80
2019-02-25T22:22:26.913Z,103814.27
2019-02-25T22:25:01.276Z,103814.69
2019-02-25T22:27:29.491Z,103805.25
2019-02-25T22:30:00.411Z,103805.69
2019-02-25T22:32:33.541Z,103797.55
2019-02-25T22:35:05.062Z,103805.45
2019-02-25T22:37:35.362Z,103800.70
2019-02-25T22:40:07.872Z,103798.78
2019-02-25T22:42:37.937Z,103796.33
2019-02-25T22:45:11.998Z,103791.67
2019-02-25T22:47:42.733Z,103794.43
2019-02-25T22:50:15.114Z,103789.61
2019-02-25T22:52:45.204Z,103779.52
2019-02-25T22:55:17.970Z,103771.24
2019-02-25T22:57:50.600Z,103762.80
2019-02-25T23:00:50.312Z,103749.45
2019-02-25T23:03:22.747Z,103741.63
2019-02-25T23:05:54.664Z,103748.34
2019-02-25T23:08:25.943Z,103745.25
2019-02-25T23:10:56.332Z,103744.89
2019-02-25T23:13:28.121Z,103734.16
2019-02-25T23:15:58.482Z,103731.70
2019-02-25T23:18:28.688Z,103733.67
2019-02-25T23:21:01.052Z,103730.05
2019-02-25T23:23:32.896Z,103731.61
2019-02-25T23:26:02.653Z,103719.59
2019-02-25T23:28:33.010Z,103709.09
2019-02-25T23:31:03.268Z,103710.13
2019-02-25T23:33:33.538Z,103721.02
2019-02-25T23:36:03.695Z,103719.62
2019-02-25T23:38:33.980Z,103724.67
2019-02-25T23:41:05.420Z,103734.67
2019-02-25T23:43:37.876Z,103732.25
2019-02-25T23:46:08.823Z,103732.11
2019-02-25T23:48:41.868Z,103738.72
2019-02-25T23:51:12.110Z,103731.48
2019-02-25T23:53:43.060Z,103736.19
2019-02-25T23:56:14.028Z,103727.66
2019-02-25T23:58:47.162Z,103729.34
